createdAt,value
2022-08-25T00:00:57.697Z,1
2022-08-25T00:02:41.098Z,1
2022-08-25T00:04:24.499Z,1
2022-08-25T00:06:07.891Z,1
2022-08-25T00:07:51.302Z,1
2022-08-25T00:09:34.673Z,0
2022-08-25T00:11:18.101Z,0
2022-08-25T00:16:27.342Z,1
2022-08-25T00:18:10.720Z,1
2022-08-25T00:19:54.107Z,1
2022-08-25T00:21:37.503Z,1
2022-08-25T00:23:20.908Z,2
2022-08-25T00:25:04.300Z,0
2022-08-25T00:26:47.705Z,1
2022-08-25T00:28:31.089Z,1
2022-08-25T00:31:57.566Z,0
2022-08-25T00:33:40.960Z,1
2022-08-25T00:35:24.357Z,1
2022-08-25T00:37:07.751Z,0
2022-08-25T00:38:51.145Z,1
2022-08-25T00:40:34.554Z,1
2022-08-25T00:42:17.951Z,0
2022-08-25T00:44:01.339Z,1
2022-08-25T00:45:45.058Z,1
2022-08-25T00:47:28.438Z,1
2022-08-25T00:49:11.836Z,0
2022-08-25T00:50:55.239Z,1
2022-08-25T00:52:38.639Z,1
2022-08-25T00:54:22.027Z,0
2022-08-25T00:56:05.430Z,1
2022-08-25T00:57:48.823Z,1
2022-08-25T01:02:58.065Z,1
2022-08-25T01:04:41.485Z,1
2022-08-25T01:06:24.851Z,1
2022-08-25T01:08:08.270Z,1
2022-08-25T01:09:51.659Z,0
2022-08-25T01:11:35.042Z,1
2022-08-25T01:13:18.450Z,0
2022-08-25T01:18:27.694Z,1
2022-08-25T01:20:11.073Z,1
2022-08-25T01:21:54.481Z,1
2022-08-25T01:23:37.878Z,1
2022-08-25T01:25:21.277Z,0
2022-08-25T01:27:04.672Z,1
2022-08-25T01:28:48.059Z,1
2022-08-25T01:30:31.455Z,1
2022-08-25T01:33:57.927Z,1
2022-08-25T01:35:41.320Z,0
2022-08-25T01:37:24.733Z,1
2022-08-25T01:39:08.122Z,0
2022-08-25T01:40:51.531Z,1
2022-08-25T01:42:34.909Z,1
2022-08-25T01:44:18.314Z,1
2022-08-25T01:46:01.714Z,1
2022-08-25T01:51:10.941Z,0
2022-08-25T01:52:54.341Z,1
2022-08-25T01:54:37.750Z,1
2022-08-25T01:56:21.142Z,1
2022-08-25T01:58:04.532Z,1
2022-08-25T01:59:47.931Z,1
2022-08-25T02:01:31.319Z,1
2022-08-25T02:03:14.718Z,1
2022-08-25T02:06:41.198Z,1
2022-08-25T02:08:24.600Z,1
2022-08-25T02:10:07.981Z,0
2022-08-25T02:11:51.391Z,1
2022-08-25T02:13:34.783Z,0
2022-08-25T02:15:18.183Z,1
2022-08-25T02:17:01.572Z,1
2022-08-25T02:18:44.964Z,1
2022-08-25T02:23:54.223Z,0
2022-08-25T02:25:37.605Z,1
2022-08-25T02:27:21.014Z,1
2022-08-25T02:29:04.409Z,1
2022-08-25T02:30:47.810Z,1
2022-08-25T02:32:31.196Z,0
2022-08-25T02:34:14.603Z,1
2022-08-25T02:35:57.995Z,1
2022-08-25T02:39:24.478Z,2
2022-08-25T02:41:07.863Z,1
2022-08-25T02:42:51.263Z,1
2022-08-25T02:44:34.652Z,1
2022-08-25T02:46:18.069Z,0
2022-08-25T02:48:01.450Z,1
2022-08-25T02:49:44.913Z,1
2022-08-25T02:51:28.253Z,1
2022-08-25T02:56:37.489Z,1
2022-08-25T02:58:20.904Z,1
2022-08-25T03:00:04.280Z,0
2022-08-25T03:01:47.672Z,1
2022-08-25T03:03:31.081Z,1
2022-08-25T03:05:14.464Z,1
2022-08-25T03:06:57.858Z,1
2022-08-25T03:08:41.263Z,1
2022-08-25T03:12:07.745Z,1
2022-08-25T03:13:51.151Z,1
2022-08-25T03:15:34.528Z,1
2022-08-25T03:17:17.922Z,1
2022-08-25T03:19:01.316Z,0
2022-08-25T03:20:44.712Z,1
2022-08-25T03:22:28.118Z,1
2022-08-25T03:24:11.518Z,0
2022-08-25T03:29:20.742Z,0
2022-08-25T03:31:04.150Z,0
2022-08-25T03:32:47.541Z,0
2022-08-25T03:34:30.936Z,1
2022-08-25T03:36:14.333Z,1
2022-08-25T03:37:57.743Z,0
2022-08-25T03:39:41.139Z,1
2022-08-25T03:41:24.534Z,1
2022-08-25T03:44:51.011Z,2
2022-08-25T03:46:34.392Z,1
2022-08-25T03:48:17.797Z,1
2022-08-25T03:50:01.185Z,1
2022-08-25T03:51:44.591Z,1
2022-08-25T03:53:27.995Z,1
2022-08-25T03:55:11.376Z,1
2022-08-25T03:56:54.785Z,1
2022-08-25T04:02:04.024Z,1
2022-08-25T04:03:47.427Z,1
2022-08-25T04:05:30.839Z,1
2022-08-25T04:07:14.238Z,1
2022-08-25T04:08:57.629Z,1
2022-08-25T04:10:41.019Z,1
2022-08-25T04:12:24.414Z,1
2022-08-25T04:14:07.806Z,2
2022-08-25T04:19:17.051Z,2
2022-08-25T04:21:00.456Z,2
2022-08-25T04:22:43.859Z,2
2022-08-25T04:24:27.256Z,3
2022-08-25T04:26:10.638Z,2
2022-08-25T04:27:54.039Z,3
2022-08-25T04:29:37.441Z,4
2022-08-25T04:31:20.826Z,3
2022-08-25T04:34:47.315Z,5
2022-08-25T04:36:30.727Z,7
2022-08-25T04:38:14.102Z,7
2022-08-25T04:39:57.513Z,8
2022-08-25T04:41:40.908Z,7
2022-08-25T04:43:24.285Z,8
2022-08-25T04:45:07.695Z,12
2022-08-25T04:46:51.087Z,16
2022-08-25T04:48:34.477Z,18
2022-08-25T04:52:00.975Z,19
2022-08-25T04:53:44.348Z,16
2022-08-25T04:55:27.742Z,19
2022-08-25T04:57:11.145Z,25
2022-08-25T04:58:54.559Z,26
2022-08-25T05:00:37.930Z,24
2022-08-25T05:02:21.333Z,21
2022-08-25T05:04:04.742Z,18
2022-08-25T05:09:13.970Z,24
2022-08-25T05:10:57.366Z,30
2022-08-25T05:12:40.779Z,41
2022-08-25T05:14:24.185Z,44
2022-08-25T05:16:07.576Z,45
2022-08-25T05:17:50.949Z,49
2022-08-25T05:19:34.358Z,52
2022-08-25T05:21:17.768Z,54
2022-08-25T05:26:27.007Z,66
2022-08-25T05:28:10.398Z,69
2022-08-25T05:29:53.821Z,77
2022-08-25T05:31:37.185Z,98
2022-08-25T05:33:20.593Z,122
2022-08-25T05:35:03.987Z,268
2022-08-25T05:36:47.376Z,288
2022-08-25T05:38:30.769Z,307
2022-08-25T05:41:57.250Z,333
2022-08-25T05:43:40.647Z,344
2022-08-25T05:45:24.035Z,355
2022-08-25T05:47:07.457Z,365
2022-08-25T05:48:50.839Z,373
2022-08-25T05:50:34.244Z,380
2022-08-25T05:52:17.630Z,377
2022-08-25T05:54:01.028Z,379
2022-08-25T05:57:27.490Z,392
2022-08-25T05:59:10.904Z,401
2022-08-25T06:00:54.292Z,385
2022-08-25T06:02:37.699Z,392
2022-08-25T06:04:21.077Z,395
2022-08-25T06:06:04.493Z,396
2022-08-25T06:07:47.885Z,404
2022-08-25T06:09:31.284Z,471
2022-08-25T06:12:57.763Z,412
2022-08-25T06:14:41.148Z,416
2022-08-25T06:16:24.541Z,420
2022-08-25T06:18:07.939Z,423
2022-08-25T06:19:51.341Z,426
2022-08-25T06:23:18.131Z,432
2022-08-25T06:25:01.531Z,437
2022-08-25T06:28:28.004Z,443
2022-08-25T06:30:11.401Z,446
2022-08-25T06:31:54.796Z,447
2022-08-25T06:35:21.587Z,449
2022-08-25T06:37:04.987Z,434
2022-08-25T06:38:48.373Z,465
2022-08-25T06:40:31.780Z,471
2022-08-25T06:43:58.267Z,477
2022-08-25T06:45:41.652Z,477
2022-08-25T06:47:25.050Z,486
2022-08-25T06:49:08.444Z,490
2022-08-25T06:50:51.836Z,497
2022-08-25T06:52:35.229Z,491
2022-08-25T06:54:18.635Z,500
2022-08-25T06:56:02.024Z,508
2022-08-25T06:59:28.519Z,517
2022-08-25T07:01:11.895Z,519
2022-08-25T07:02:55.305Z,529
2022-08-25T07:04:38.717Z,534
2022-08-25T07:06:22.091Z,540
2022-08-25T07:08:05.495Z,544
2022-08-25T07:09:48.878Z,549
2022-08-25T07:11:32.274Z,551
2022-08-25T07:16:41.515Z,562
2022-08-25T07:18:24.921Z,566
2022-08-25T07:20:08.363Z,569
2022-08-25T07:21:51.700Z,574
2022-08-25T07:23:35.110Z,578
2022-08-25T07:25:18.516Z,580
2022-08-25T07:27:01.898Z,584
2022-08-25T07:28:45.287Z,587
2022-08-25T07:32:11.759Z,612
2022-08-25T07:33:55.187Z,583
2022-08-25T07:35:38.562Z,590
2022-08-25T07:37:21.971Z,561
2022-08-25T07:39:05.346Z,608
2022-08-25T07:40:48.740Z,611
2022-08-25T07:42:32.153Z,618
2022-08-25T07:44:15.565Z,621
2022-08-25T07:45:58.973Z,626
2022-08-25T07:49:25.437Z,639
2022-08-25T07:51:08.849Z,642
2022-08-25T07:52:52.219Z,648
2022-08-25T07:54:35.644Z,651
2022-08-25T07:56:19.034Z,657
2022-08-25T07:58:02.423Z,662
2022-08-25T07:59:45.780Z,670
2022-08-25T08:01:29.215Z,673
2022-08-25T08:04:55.706Z,685
2022-08-25T08:06:39.079Z,690
2022-08-25T08:08:22.482Z,694
2022-08-25T08:10:05.843Z,701
2022-08-25T08:11:49.237Z,686
2022-08-25T08:13:32.677Z,710
2022-08-25T08:15:16.099Z,716
2022-08-25T08:22:08.688Z,728
2022-08-25T08:23:52.069Z,728
2022-08-25T08:25:35.499Z,730
2022-08-25T08:27:18.907Z,740
2022-08-25T08:29:02.276Z,730
2022-08-25T08:30:45.649Z,732
2022-08-25T08:32:29.071Z,712
2022-08-25T08:34:12.491Z,532
2022-08-25T08:37:38.958Z,708
2022-08-25T08:39:22.338Z,666
2022-08-25T08:41:05.762Z,774
2022-08-25T08:42:49.142Z,779
2022-08-25T08:44:32.542Z,779
2022-08-25T08:46:15.910Z,781
2022-08-25T08:47:59.350Z,781
2022-08-25T08:49:42.743Z,781
2022-08-25T08:53:09.191Z,782
2022-08-25T08:54:52.605Z,781
2022-08-25T08:56:35.969Z,781
2022-08-25T08:58:19.364Z,781
2022-08-25T09:00:02.781Z,778
2022-08-25T09:01:46.155Z,778
2022-08-25T09:03:29.561Z,781
2022-08-25T09:05:13.011Z,780
2022-08-25T09:08:39.448Z,750
2022-08-25T09:10:22.808Z,781
2022-08-25T09:12:06.235Z,776
2022-08-25T09:13:49.602Z,775
2022-08-25T09:15:32.999Z,779
2022-08-25T09:17:16.426Z,782
2022-08-25T09:18:59.796Z,781
2022-08-25T09:20:43.199Z,781
2022-08-25T09:24:09.656Z,781
2022-08-25T09:25:53.117Z,781
2022-08-25T09:27:36.460Z,782
2022-08-25T09:29:19.870Z,781
2022-08-25T09:31:03.247Z,781
2022-08-25T09:32:46.682Z,781
2022-08-25T09:34:30.046Z,782
2022-08-25T09:36:13.469Z,781
2022-08-25T09:41:22.718Z,781
2022-08-25T09:43:06.112Z,243
2022-08-25T09:44:49.483Z,275
2022-08-25T09:46:32.853Z,781
2022-08-25T09:48:16.308Z,781
2022-08-25T09:49:59.694Z,781
2022-08-25T09:51:43.042Z,781
2022-08-25T09:53:26.453Z,782
2022-08-25T09:55:09.883Z,772
2022-08-25T09:56:53.605Z,781
2022-08-25T09:58:36.950Z,782
2022-08-25T10:00:20.373Z,782
2022-08-25T10:02:03.755Z,782
2022-08-25T10:03:47.169Z,781
2022-08-25T10:05:30.554Z,781
2022-08-25T10:07:13.921Z,781
2022-08-25T10:08:57.350Z,781
2022-08-25T10:14:06.563Z,781
2022-08-25T10:15:49.990Z,782
2022-08-25T10:17:33.344Z,403
2022-08-25T10:19:16.788Z,344
2022-08-25T10:21:00.164Z,640
2022-08-25T10:22:43.580Z,782
2022-08-25T10:24:26.977Z,311
2022-08-25T10:26:10.399Z,781
2022-08-25T10:31:19.616Z,432
2022-08-25T10:33:02.987Z,322
2022-08-25T10:34:46.407Z,310
2022-08-25T10:36:29.798Z,782
2022-08-25T10:38:13.204Z,437
2022-08-25T10:39:56.592Z,377
2022-08-25T10:41:40.005Z,565
2022-08-25T10:43:23.366Z,674
2022-08-25T10:46:49.850Z,766
2022-08-25T10:48:33.269Z,294
2022-08-25T10:50:16.671Z,326
2022-08-25T10:52:00.044Z,386
2022-08-25T10:53:43.460Z,287
2022-08-25T10:55:26.856Z,724
2022-08-25T10:57:10.242Z,782
2022-08-25T10:58:53.657Z,782
2022-08-25T11:02:20.075Z,341
2022-08-25T11:04:03.475Z,782
2022-08-25T11:05:46.889Z,782
2022-08-25T11:07:30.258Z,782
2022-08-25T11:09:13.674Z,782
2022-08-25T11:10:57.091Z,368
2022-08-25T11:12:40.438Z,319
2022-08-25T11:14:23.885Z,358
2022-08-25T11:19:33.113Z,782
2022-08-25T11:21:16.531Z,782
2022-08-25T11:22:59.919Z,781
2022-08-25T11:24:43.313Z,782
2022-08-25T11:26:26.715Z,781
2022-08-25T11:28:10.083Z,782
2022-08-25T11:29:53.513Z,781
2022-08-25T11:31:36.900Z,781
2022-08-25T11:35:03.328Z,782
2022-08-25T11:36:46.735Z,782
2022-08-25T11:38:30.175Z,782
2022-08-25T11:40:13.542Z,782
2022-08-25T11:41:56.928Z,782
2022-08-25T11:43:40.352Z,782
2022-08-25T11:45:23.760Z,782
2022-08-25T11:47:07.134Z,782
2022-08-25T11:50:33.598Z,781
2022-08-25T11:52:17.017Z,782
2022-08-25T11:54:00.422Z,781
2022-08-25T11:55:43.820Z,781
2022-08-25T11:57:27.234Z,782
2022-08-25T11:59:10.561Z,357
2022-08-25T12:00:53.977Z,345
2022-08-25T12:02:37.394Z,782
2022-08-25T12:07:46.610Z,748
2022-08-25T12:09:30.039Z,782
2022-08-25T12:11:13.422Z,782
2022-08-25T12:12:56.802Z,782
2022-08-25T12:14:40.243Z,782
2022-08-25T12:16:23.597Z,781
2022-08-25T12:18:07.007Z,782
2022-08-25T12:19:50.431Z,771
2022-08-25T12:21:34.125Z,350
2022-08-25T12:23:17.528Z,782
2022-08-25T12:25:00.924Z,782
2022-08-25T12:26:44.311Z,782
2022-08-25T12:28:27.699Z,782
2022-08-25T12:30:11.084Z,782
2022-08-25T12:31:54.488Z,782
2022-08-25T12:33:37.918Z,781
2022-08-25T12:37:04.346Z,781
2022-08-25T12:38:47.751Z,782
2022-08-25T12:40:31.190Z,781
2022-08-25T12:42:14.536Z,781
2022-08-25T12:43:57.985Z,782
2022-08-25T12:45:41.358Z,781
2022-08-25T12:47:24.766Z,782
2022-08-25T12:49:08.191Z,782
2022-08-25T12:54:17.388Z,782
2022-08-25T12:56:00.813Z,782
2022-08-25T12:57:44.221Z,782
2022-08-25T12:59:27.592Z,433
2022-08-25T13:01:10.979Z,445
2022-08-25T13:02:54.377Z,440
2022-08-25T13:04:37.800Z,442
2022-08-25T13:06:21.163Z,773
2022-08-25T13:08:04.895Z,782
2022-08-25T13:09:48.271Z,782
2022-08-25T13:11:31.683Z,782
2022-08-25T13:13:15.066Z,783
2022-08-25T13:14:58.479Z,658
2022-08-25T13:16:41.864Z,441
2022-08-25T13:18:25.237Z,358
2022-08-25T13:20:08.634Z,339
2022-08-25T13:21:52.048Z,341
2022-08-25T13:25:18.511Z,358
2022-08-25T13:27:01.932Z,355
2022-08-25T13:28:45.339Z,346
2022-08-25T13:30:28.738Z,368
2022-08-25T13:32:12.097Z,383
2022-08-25T13:33:55.485Z,396
2022-08-25T13:37:22.317Z,781
2022-08-25T13:40:48.765Z,782
2022-08-25T13:42:32.173Z,782
2022-08-25T13:44:15.568Z,782
2022-08-25T13:45:58.990Z,782
2022-08-25T13:47:42.417Z,781
2022-08-25T13:49:25.758Z,782
2022-08-25T13:51:09.153Z,781
2022-08-25T13:52:52.523Z,296
2022-08-25T13:56:19.000Z,781
2022-08-25T13:58:02.528Z,782
2022-08-25T13:59:46.474Z,782
2022-08-25T14:01:29.217Z,782
2022-08-25T14:03:12.595Z,782
2022-08-25T14:04:55.976Z,782
2022-08-25T14:06:39.422Z,782
2022-08-25T14:08:22.778Z,781
2022-08-25T14:11:49.250Z,782
2022-08-25T14:13:32.649Z,782
2022-08-25T14:15:16.073Z,782
2022-08-25T14:16:59.439Z,782
2022-08-25T14:18:42.857Z,400
2022-08-25T14:20:26.266Z,410
2022-08-25T14:22:09.675Z,437
2022-08-25T14:23:53.019Z,461
2022-08-25T14:25:36.776Z,521
2022-08-25T14:27:20.147Z,603
2022-08-25T14:29:03.526Z,500
2022-08-25T14:30:46.951Z,491
2022-08-25T14:32:30.365Z,506
2022-08-25T14:34:13.753Z,503
2022-08-25T14:35:57.160Z,781
2022-08-25T14:37:40.524Z,782
2022-08-25T14:41:06.975Z,456
2022-08-25T14:42:50.380Z,457
2022-08-25T14:44:33.773Z,461
2022-08-25T14:46:17.222Z,448
2022-08-25T14:48:00.602Z,742
2022-08-25T14:49:44.004Z,471
2022-08-25T14:51:27.423Z,474
2022-08-25T14:53:10.759Z,492
2022-08-25T14:56:37.705Z,480
2022-08-25T14:58:20.655Z,421
2022-08-25T15:00:04.022Z,410
2022-08-25T15:01:47.464Z,781
2022-08-25T15:03:30.860Z,782
2022-08-25T15:05:14.248Z,709
2022-08-25T15:06:57.668Z,411
2022-08-25T15:08:41.045Z,384
2022-08-25T15:12:07.523Z,363
2022-08-25T15:13:50.937Z,782
2022-08-25T15:15:34.386Z,728
2022-08-25T15:17:17.702Z,782
2022-08-25T15:19:01.081Z,781
2022-08-25T15:20:44.519Z,782
2022-08-25T15:22:27.892Z,782
2022-08-25T15:24:11.312Z,781
2022-08-25T15:27:37.792Z,272
2022-08-25T15:29:21.204Z,271
2022-08-25T15:31:04.558Z,271
2022-08-25T15:32:47.936Z,287
2022-08-25T15:34:31.381Z,326
2022-08-25T15:36:14.789Z,581
2022-08-25T15:37:58.133Z,536
2022-08-25T15:39:41.568Z,782
2022-08-25T15:43:08.036Z,782
2022-08-25T15:44:51.393Z,782
2022-08-25T15:46:34.841Z,738
2022-08-25T15:48:18.194Z,305
2022-08-25T15:50:01.616Z,297
2022-08-25T15:51:45.021Z,782
2022-08-25T15:53:28.422Z,782
2022-08-25T15:55:11.783Z,297
2022-08-25T16:00:21.075Z,345
2022-08-25T16:02:04.423Z,582
2022-08-25T16:03:47.858Z,345
2022-08-25T16:05:31.226Z,320
2022-08-25T16:07:14.641Z,301
2022-08-25T16:08:58.060Z,301
2022-08-25T16:10:41.427Z,304
2022-08-25T16:12:24.841Z,318
2022-08-25T16:17:34.059Z,784
2022-08-25T16:19:17.468Z,784
2022-08-25T16:21:00.837Z,784
2022-08-25T16:22:44.271Z,783
2022-08-25T16:24:27.676Z,783
2022-08-25T16:26:11.062Z,783
2022-08-25T16:27:54.421Z,783
2022-08-25T16:29:37.819Z,783
2022-08-25T16:34:47.103Z,783
2022-08-25T16:36:30.504Z,783
2022-08-25T16:38:13.855Z,783
2022-08-25T16:39:57.273Z,782
2022-08-25T16:41:40.649Z,782
2022-08-25T16:43:24.080Z,782
2022-08-25T16:45:07.486Z,783
2022-08-25T16:46:50.886Z,781
2022-08-25T16:50:17.359Z,782
2022-08-25T16:52:00.743Z,782
2022-08-25T16:53:44.123Z,783
2022-08-25T16:55:27.502Z,783
2022-08-25T16:57:10.952Z,783
2022-08-25T16:58:54.311Z,783
2022-08-25T17:00:37.685Z,782
2022-08-25T17:02:21.118Z,783
2022-08-25T17:05:47.595Z,782
2022-08-25T17:07:30.977Z,782
2022-08-25T17:09:14.355Z,782
2022-08-25T17:10:57.778Z,782
2022-08-25T17:12:41.132Z,783
2022-08-25T17:14:24.580Z,782
2022-08-25T17:16:07.959Z,782
2022-08-25T17:17:51.339Z,782
2022-08-25T17:21:17.810Z,782
2022-08-25T17:23:01.263Z,668
2022-08-25T17:24:44.600Z,382
2022-08-25T17:26:27.997Z,225
2022-08-25T17:28:11.387Z,193
2022-08-25T17:29:54.779Z,181
2022-08-25T17:31:38.191Z,176
2022-08-25T17:33:21.572Z,169
2022-08-25T17:36:48.053Z,151
2022-08-25T17:38:31.447Z,152
2022-08-25T17:40:14.845Z,147
2022-08-25T17:41:58.265Z,143
2022-08-25T17:43:41.656Z,138
2022-08-25T17:45:25.061Z,132
2022-08-25T17:47:08.448Z,127
2022-08-25T17:48:51.836Z,121
2022-08-25T17:52:18.324Z,111
2022-08-25T17:54:01.716Z,107
2022-08-25T17:55:45.117Z,101
2022-08-25T17:57:28.509Z,96
2022-08-25T17:59:11.901Z,88
2022-08-25T18:00:55.302Z,83
2022-08-25T18:02:38.698Z,78
2022-08-25T18:04:22.102Z,72
2022-08-25T18:06:05.809Z,65
2022-08-25T18:07:49.219Z,58
2022-08-25T18:09:32.592Z,51
2022-08-25T18:11:15.998Z,41
2022-08-25T18:12:59.381Z,34
2022-08-25T18:14:42.798Z,30
2022-08-25T18:16:26.232Z,27
2022-08-25T18:18:09.588Z,22
2022-08-25T18:23:18.834Z,12
2022-08-25T18:25:02.213Z,11
2022-08-25T18:26:45.620Z,8
2022-08-25T18:28:29.012Z,8
2022-08-25T18:30:12.656Z,7
2022-08-25T18:31:55.794Z,7
2022-08-25T18:33:39.223Z,5
2022-08-25T18:35:22.593Z,4
2022-08-25T18:38:49.076Z,3
2022-08-25T18:40:32.467Z,3
2022-08-25T18:42:15.874Z,3
2022-08-25T18:43:59.265Z,3
2022-08-25T18:45:42.669Z,2
2022-08-25T18:47:26.060Z,3
2022-08-25T18:49:09.452Z,2
2022-08-25T18:50:52.835Z,2
2022-08-25T18:54:19.318Z,3
2022-08-25T18:56:02.707Z,2
2022-08-25T18:57:46.124Z,2
2022-08-25T18:59:29.501Z,2
2022-08-25T19:01:12.905Z,2
2022-08-25T19:02:56.311Z,3
2022-08-25T19:04:39.702Z,3
2022-08-25T19:06:23.099Z,2
2022-08-25T19:11:32.330Z,2
2022-08-25T19:13:15.737Z,9
2022-08-25T19:14:59.115Z,9
2022-08-25T19:16:42.530Z,8
2022-08-25T19:18:25.929Z,8
2022-08-25T19:20:09.321Z,8
2022-08-25T19:21:52.720Z,8
2022-08-25T19:23:36.128Z,7
2022-08-25T19:28:45.350Z,14
2022-08-25T19:30:28.751Z,8
2022-08-25T19:32:12.139Z,8
2022-08-25T19:33:55.538Z,8
2022-08-25T19:35:38.937Z,8
2022-08-25T19:37:22.343Z,8
2022-08-25T19:39:05.744Z,8
2022-08-25T19:40:49.138Z,8
2022-08-25T19:44:15.618Z,14
2022-08-25T19:45:58.998Z,14
2022-08-25T19:47:42.399Z,15
2022-08-25T19:49:25.816Z,14
2022-08-25T19:51:09.196Z,15
2022-08-25T19:52:52.581Z,14
2022-08-25T19:54:35.980Z,14
2022-08-25T19:56:19.395Z,14
2022-08-25T20:01:28.629Z,1
2022-08-25T20:03:12.031Z,1
2022-08-25T20:04:55.419Z,1
2022-08-25T20:06:38.811Z,1
2022-08-25T20:08:22.216Z,1
2022-08-25T20:10:05.631Z,1
2022-08-25T20:11:49.017Z,0
2022-08-25T20:13:32.406Z,0
2022-08-25T20:18:41.646Z,1
2022-08-25T20:20:25.058Z,1
2022-08-25T20:22:08.427Z,0
2022-08-25T20:23:51.849Z,1
2022-08-25T20:25:35.226Z,1
2022-08-25T20:27:18.616Z,1
2022-08-25T20:29:02.021Z,1
2022-08-25T20:30:45.432Z,1
2022-08-25T20:32:28.822Z,1
2022-08-25T20:35:55.278Z,1
2022-08-25T20:37:38.679Z,1
2022-08-25T20:39:22.079Z,1
2022-08-25T20:41:05.488Z,1
2022-08-25T20:42:48.873Z,1
2022-08-25T20:44:32.269Z,1
2022-08-25T20:46:15.661Z,1
2022-08-25T20:47:59.070Z,1
2022-08-25T20:49:42.472Z,1
2022-08-25T20:53:08.935Z,1
2022-08-25T20:54:52.327Z,1
2022-08-25T20:56:35.730Z,1
2022-08-25T20:58:19.137Z,1
2022-08-25T21:00:02.518Z,1
2022-08-25T21:01:45.910Z,1
2022-08-25T21:03:29.309Z,1
2022-08-25T21:05:12.705Z,1
2022-08-25T21:06:56.096Z,1
2022-08-25T21:08:39.823Z,1
2022-08-25T21:10:23.223Z,1
2022-08-25T21:12:06.606Z,1
2022-08-25T21:13:50.011Z,4
2022-08-25T21:15:33.395Z,6
2022-08-25T21:17:16.801Z,1
2022-08-25T21:19:00.194Z,0
2022-08-25T21:20:43.584Z,1
2022-08-25T21:22:26.996Z,2
2022-08-25T21:25:53.459Z,1
2022-08-25T21:27:36.867Z,1
2022-08-25T21:29:20.240Z,1
2022-08-25T21:31:03.649Z,1
2022-08-25T21:32:47.040Z,1
2022-08-25T21:34:30.455Z,1
2022-08-25T21:36:13.840Z,1
2022-08-25T21:37:57.232Z,1
2022-08-25T21:43:06.475Z,1
2022-08-25T21:44:49.902Z,1
2022-08-25T21:46:33.265Z,0
2022-08-25T21:48:16.665Z,0
2022-08-25T21:50:00.066Z,1
2022-08-25T21:51:43.450Z,1
2022-08-25T21:53:26.851Z,1
2022-08-25T21:55:10.257Z,0
2022-08-25T21:56:53.644Z,1
2022-08-25T22:00:20.119Z,1
2022-08-25T22:02:03.534Z,1
2022-08-25T22:03:46.909Z,0
2022-08-25T22:05:30.311Z,1
2022-08-25T22:07:13.698Z,0
2022-08-25T22:08:57.138Z,0
2022-08-25T22:10:40.493Z,1
2022-08-25T22:12:23.886Z,1
2022-08-25T22:14:07.274Z,1
2022-08-25T22:17:33.756Z,1
2022-08-25T22:19:17.161Z,1
2022-08-25T22:21:00.558Z,1
2022-08-25T22:22:43.943Z,0
2022-08-25T22:24:27.340Z,1
2022-08-25T22:26:10.732Z,1
2022-08-25T22:27:54.135Z,1
2022-08-25T22:29:37.550Z,1
2022-08-25T22:34:46.786Z,0
2022-08-25T22:36:30.160Z,1
2022-08-25T22:38:13.570Z,1
2022-08-25T22:39:56.971Z,1
2022-08-25T22:41:40.367Z,1
2022-08-25T22:43:23.765Z,1
2022-08-25T22:45:07.145Z,1
2022-08-25T22:46:50.554Z,1
2022-08-25T22:50:17.042Z,1
2022-08-25T22:52:00.436Z,1
2022-08-25T22:53:43.825Z,1
2022-08-25T22:55:27.213Z,0
2022-08-25T22:57:10.593Z,1
2022-08-25T22:58:54.011Z,1
2022-08-25T23:00:37.383Z,0
2022-08-25T23:02:20.808Z,1
2022-08-25T23:04:04.186Z,1
2022-08-25T23:07:30.652Z,0
2022-08-25T23:09:14.067Z,1
2022-08-25T23:10:57.462Z,1
2022-08-25T23:12:40.858Z,1
2022-08-25T23:14:24.265Z,1
2022-08-25T23:16:07.631Z,1
2022-08-25T23:17:51.047Z,0
2022-08-25T23:19:34.440Z,1
2022-08-25T23:21:17.839Z,1
2022-08-25T23:24:44.293Z,2
2022-08-25T23:26:27.705Z,1
2022-08-25T23:28:11.111Z,1
2022-08-25T23:29:54.486Z,1
2022-08-25T23:31:37.894Z,0
2022-08-25T23:33:21.277Z,0
2022-08-25T23:35:04.679Z,1
2022-08-25T23:36:48.067Z,1
2022-08-25T23:41:57.326Z,1
2022-08-25T23:43:40.712Z,1
2022-08-25T23:45:24.124Z,1
2022-08-25T23:47:07.511Z,1
2022-08-25T23:48:50.909Z,1
2022-08-25T23:50:34.306Z,1
2022-08-25T23:52:17.700Z,1
2022-08-25T23:54:01.090Z,1
2022-08-25T23:57:27.569Z,0
2022-08-25T23:59:10.973Z,1
